Time;durP1;ratioP1;P1;durP2;ratioP2;P2;SDS_P1;SDS_P2;PMS_P1;PMS_P2;Temp;Humidity;BMP_temperature;BMP_pressure;BME280_temperature;BME280_humidity;BME280_pressure;Samples;Min_cycle;Max_cycle;Signal;HPM_P1;HPM_P2
2024/02/20 00:01:03;;;;;;;5.90;2.90;;;;;;;10.61;85.85;96392.72;4989223;28;20226;-84
2024/02/20 00:03:29;;;;;;;3.90;2.33;;;;;;;10.60;86.43;96406.53;5001283;28;20746;-85
2024/02/20 00:05:56;;;;;;;4.50;2.50;;;;;;;10.64;85.73;96395.78;4986927;28;20219;-85
2024/02/20 00:08:22;;;;;;;4.17;2.53;;;;;;;10.66;85.89;96390.47;4987447;28;20204;-86
2024/02/20 00:10:49;;;;;;;3.20;2.70;;;;;;;10.65;85.51;96378.56;4988743;28;20211;-87
2024/02/20 00:13:17;;;;;;;4.87;2.80;;;;;;;10.63;85.14;96375.34;4994217;28;20247;-87
2024/02/20 00:15:46;;;;;;;4.90;2.90;;;;;;;10.62;84.82;96366.00;4973812;28;20204;-87
2024/02/20 00:18:12;;;;;;;3.67;2.60;;;;;;;10.59;85.44;96379.19;4995557;28;20688;-86
2024/02/20 00:20:42;;;;;;;3.93;2.20;;;;;;;10.53;85.24;96374.69;5012616;28;20203;-87
2024/02/20 00:23:10;;;;;;;3.20;2.20;;;;;;;10.55;85.01;96359.88;4987073;28;20223;-85
2024/02/20 00:25:37;;;;;;;3.80;2.23;;;;;;;10.51;84.92;96354.22;4990925;28;20207;-85
2024/02/20 00:28:06;;;;;;;4.13;2.43;;;;;;;10.50;84.93;96352.63;4980278;28;20802;-85
2024/02/20 00:30:33;;;;;;;3.67;2.20;;;;;;;10.50;84.85;96354.38;4995628;28;20294;-86
2024/02/20 00:33:01;;;;;;;2.17;1.90;;;;;;;10.48;84.38;96346.00;4993010;28;20249;-84
2024/02/20 00:35:28;;;;;;;3.30;2.20;;;;;;;10.46;84.93;96350.50;5004311;28;20672;-85
2024/02/20 00:37:54;;;;;;;3.20;2.30;;;;;;;10.25;86.23;96380.03;4997361;28;20211;-85
2024/02/20 00:40:21;;;;;;;2.20;2.00;;;;;;;10.20;86.33;96386.63;4975198;28;20203;-84
2024/02/20 00:42:48;;;;;;;4.63;2.30;;;;;;;10.17;86.03;96380.00;4974705;28;20224;-85
2024/02/20 00:45:15;;;;;;;6.17;2.10;;;;;;;10.12;85.50;96368.53;4988854;28;20199;-84
2024/02/20 00:47:41;;;;;;;3.27;2.10;;;;;;;10.15;86.07;96391.41;4995068;28;20286;-85
2024/02/20 00:50:10;;;;;;;3.57;2.30;;;;;;;10.21;85.96;96385.66;5003803;28;20660;-85
2024/02/20 00:52:37;;;;;;;4.40;2.40;;;;;;;10.16;86.27;96387.88;5000450;28;20231;-85
2024/02/20 00:55:04;;;;;;;3.27;2.23;;;;;;;10.13;87.02;96411.31;4993898;28;20269;-85
2024/02/20 00:57:31;;;;;;;4.03;2.23;;;;;;;9.96;87.75;96429.25;4989844;28;20253;-85
2024/02/20 00:59:58;;;;;;;5.27;1.97;;;;;;;9.81;87.62;96432.53;4974507;28;20200;-85
2024/02/20 01:02:24;;;;;;;1.80;1.70;;;;;;;9.77;88.43;96452.59;4975107;28;20633;-85
2024/02/20 01:04:51;;;;;;;1.90;1.53;;;;;;;9.78;89.00;96466.25;4948282;28;20241;-85
2024/02/20 01:07:18;;;;;;;1.40;1.30;;;;;;;9.83;88.01;96441.69;4986326;28;20203;-86
2024/02/20 01:09:45;;;;;;;1.70;1.50;;;;;;;9.80;87.80;96436.88;4978633;28;20228;-85
2024/02/20 01:12:11;;;;;;;2.00;1.30;;;;;;;9.81;87.71;96425.63;4954839;28;20595;-85
2024/02/20 01:14:41;;;;;;;1.80;1.43;;;;;;;9.83;87.57;96426.25;4966264;28;20279;-86
2024/02/20 01:17:08;;;;;;;1.30;1.20;;;;;;;9.88;86.55;96405.22;4962430;28;20288;-84
2024/02/20 01:19:34;;;;;;;1.60;1.33;;;;;;;9.90;85.91;96391.25;4971599;28;20247;-84
2024/02/20 01:22:33;;;;;;;2.60;1.50;;;;;;;9.91;86.20;96386.91;4993874;23;20231;-85
2024/02/20 01:25:36;;;;;;;1.63;1.30;;;;;;;9.85;85.55;96365.19;5005718;28;20218;-84
2024/02/20 01:28:23;;;;;;;1.87;1.20;;;;;;;9.81;84.66;96351.03;5013230;28;20222;-84
2024/02/20 01:31:08;;;;;;;2.70;1.67;;;;;;;9.82;84.40;96347.47;5004533;28;20227;-85
2024/02/20 01:33:38;;;;;;;1.30;1.20;;;;;;;9.80;84.79;96346.84;5001196;28;20231;-84
2024/02/20 01:36:34;;;;;;;1.47;1.30;;;;;;;9.77;85.34;96359.19;4997992;28;20208;-86
2024/02/20 01:39:10;;;;;;;1.80;1.70;;;;;;;9.76;86.32;96375.59;4990255;28;20661;-85
2024/02/20 01:41:36;;;;;;;2.93;1.80;;;;;;;9.75;86.99;96399.69;4996119;28;20247;-85
2024/02/20 01:44:05;;;;;;;1.60;1.50;;;;;;;9.66;88.31;96411.66;4995824;28;20719;-87
2024/02/20 01:46:44;;;;;;;1.90;1.70;;;;;;;9.63;89.26;96433.34;4995338;28;20199;-86
2024/02/20 01:49:14;;;;;;;1.70;1.60;;;;;;;9.59;89.91;96438.97;4989605;28;20242;-85
2024/02/20 01:51:45;;;;;;;1.80;1.60;;;;;;;9.69;89.53;96435.31;4989718;28;20215;-85
2024/02/20 01:54:37;;;;;;;1.80;1.70;;;;;;;9.69;89.79;96432.75;4992100;28;20251;-84
2024/02/20 01:57:12;;;;;;;1.87;1.73;;;;;;;9.71;89.99;96432.59;4988844;28;20219;-85
2024/02/20 02:00:03;;;;;;;1.87;1.77;;;;;;;9.66;90.84;96445.09;4991599;28;20349;-85
2024/02/20 02:02:57;;;;;;;2.30;1.60;;;;;;;9.65;91.01;96435.78;4987374;28;20286;-86
2024/02/20 02:05:38;;;;;;;1.87;1.60;;;;;;;9.58;91.43;96445.88;4993775;28;20262;-86
2024/02/20 02:08:24;;;;;;;1.70;1.60;;;;;;;9.50;92.06;96458.63;4993969;28;20677;-84
2024/02/20 02:14:18;;;;;;;2.10;1.70;;;;;;;9.54;91.31;96441.97;4977493;28;20222;-86
2024/02/20 02:17:07;;;;;;;1.97;1.50;;;;;;;9.47;91.12;96438.38;5015119;28;20246;-84
2024/02/20 02:19:41;;;;;;;1.43;1.10;;;;;;;9.41;89.70;96412.47;4988050;28;20293;-84
2024/02/20 02:25:13;;;;;;;1.17;1.07;;;;;;;9.43;89.02;96397.72;5012717;28;20199;-85
2024/02/20 02:27:55;;;;;;;1.20;1.10;;;;;;;9.37;88.87;96399.09;4997396;28;20554;-85
2024/02/20 02:30:28;;;;;;;1.80;1.00;;;;;;;9.32;89.16;96412.38;5013308;28;20233;-84
2024/02/20 02:33:15;;;;;;;1.73;1.10;;;;;;;9.32;89.43;96402.09;5013106;28;20664;-86
2024/02/20 02:35:45;;;;;;;1.63;0.90;;;;;;;9.40;89.16;96393.66;5012493;28;20283;-85
2024/02/20 02:38:12;;;;;;;1.17;0.80;;;;;;;9.39;88.94;96393.81;5013546;28;20878;-86
2024/02/20 02:40:55;;;;;;;1.03;0.90;;;;;;;9.37;88.72;96393.16;5013571;28;20210;-85
2024/02/20 02:43:35;;;;;;;0.90;0.90;;;;;;;9.40;88.38;96392.84;5009204;28;20207;-86
2024/02/20 02:49:29;;;;;;;2.20;1.00;;;;;;;9.35;88.12;96396.69;4926396;28;20201;-85
2024/02/20 02:52:09;;;;;;;1.43;0.90;;;;;;;9.37;88.24;96395.72;5015898;28;20223;-86
2024/02/20 02:54:54;;;;;;;1.00;1.00;;;;;;;9.30;88.39;96398.06;5012495;28;20245;-86
2024/02/20 02:57:44;;;;;;;1.80;1.03;;;;;;;9.37;88.39;96403.44;5013713;28;20203;-84
2024/02/20 03:00:32;;;;;;;0.90;0.83;;;;;;;9.34;88.70;96404.53;5000634;28;20262;-84
2024/02/20 03:03:29;;;;;;;2.40;1.10;;;;;;;9.22;89.25;96408.28;5011885;28;20222;-85
2024/02/20 03:11:55;;;;;;;1.00;0.90;;;;;;;8.97;91.04;96449.16;5008213;28;20210;-85
2024/02/20 03:14:57;;;;;;;1.40;1.20;;;;;;;8.95;91.48;96451.06;5011255;28;20268;-86
2024/02/20 03:20:26;;;;;;;1.10;1.00;;;;;;;9.09;90.62;96452.31;5011763;28;20205;-84
2024/02/20 03:23:07;;;;;;;1.30;1.20;;;;;;;9.06;90.90;96452.59;5011903;28;20242;-85
2024/02/20 03:25:49;;;;;;;1.27;1.00;;;;;;;9.07;91.02;96455.97;5012404;28;20191;-86
2024/02/20 03:28:28;;;;;;;2.50;1.03;;;;;;;8.98;91.68;96462.81;5011986;28;20241;-86
2024/02/20 03:31:17;;;;;;;1.37;1.07;;;;;;;9.05;91.31;96468.16;5008536;28;20257;-86
2024/02/20 03:34:40;;;;;;;2.50;1.20;;;;;;;9.05;91.67;96473.28;5011443;28;20230;-85
2024/02/20 03:37:15;;;;;;;1.10;1.00;;;;;;;8.97;92.06;96482.56;4911767;29;20217;-84
2024/02/20 03:39:50;;;;;;;1.10;1.00;;;;;;;8.98;92.29;96489.31;4999170;28;20260;-85
2024/02/20 03:42:33;;;;;;;2.60;1.20;;;;;;;9.05;92.36;96489.53;4997368;28;20218;-85
2024/02/20 03:45:00;;;;;;;2.77;1.20;;;;;;;9.07;92.13;96487.63;5011254;28;20285;-85
2024/02/20 03:47:41;;;;;;;1.20;1.10;;;;;;;9.10;91.75;96487.34;5006888;28;20289;-85
2024/02/20 03:50:16;;;;;;;1.40;1.30;;;;;;;9.05;91.79;96486.16;5008975;28;20729;-85
2024/02/20 04:01:23;;;;;;;1.73;1.50;;;;;;;9.24;90.74;96493.72;5009322;28;20238;-85
2024/02/20 04:04:01;;;;;;;1.50;1.40;;;;;;;9.22;91.02;96500.81;5005006;28;20206;-84
2024/02/20 04:06:44;;;;;;;1.67;1.47;;;;;;;9.24;90.74;96493.72;5012138;28;20215;-85
2024/02/20 04:09:32;;;;;;;3.40;1.40;;;;;;;9.28;90.97;96495.06;5012093;28;20285;-85
2024/02/20 04:12:53;;;;;;;2.13;1.50;;;;;;;9.31;90.44;96487.88;5004953;28;21303;-85
2024/02/20 04:18:10;;;;;;;1.97;1.70;;;;;;;9.18;90.63;96486.63;5000438;28;20203;-84
2024/02/20 04:20:39;;;;;;;2.83;1.60;;;;;;;9.18;90.50;96495.13;5009650;28;20210;-85
2024/02/20 04:23:11;;;;;;;2.20;1.77;;;;;;;9.20;90.91;96505.28;5014997;28;20297;-86
2024/02/20 04:28:48;;;;;;;2.13;1.73;;;;;;;9.26;91.87;96526.03;5013154;28;20716;-85
2024/02/20 04:31:26;;;;;;;2.00;1.80;;;;;;;9.18;91.60;96522.59;5012759;28;20210;-85
2024/02/20 04:34:12;;;;;;;2.33;1.90;;;;;;;9.13;92.51;96537.63;5013394;28;20204;-85
2024/02/20 04:36:59;;;;;;;2.87;1.90;;;;;;;9.05;93.71;96558.88;5006043;28;20203;-85
2024/02/20 04:39:49;;;;;;;2.20;1.93;;;;;;;9.07;93.79;96567.25;5008101;28;20206;-84
2024/02/20 04:42:50;;;;;;;2.83;2.00;;;;;;;9.09;94.77;96583.34;5010995;28;20313;-85
2024/02/20 04:48:54;;;;;;;2.33;2.10;;;;;;;9.18;95.44;96597.91;5003771;28;20230;-85
2024/02/20 04:51:56;;;;;;;;;;;;;;;;;;;;;
2024/02/20 04:57:49;;;;;;;3.23;2.17;;;;;;;8.99;96.88;96610.84;4943901;28;20248;-85
2024/02/20 05:01:08;;;;;;;2.40;2.07;;;;;;;9.07;96.80;96616.06;5016296;28;20196;-85
2024/02/20 05:04:07;;;;;;;2.37;1.93;;;;;;;9.08;96.66;96622.81;4987932;28;20731;-86
2024/02/20 05:07:04;;;;;;;3.03;2.20;;;;;;;9.09;96.94;96613.34;5014211;28;20199;-85
2024/02/20 05:09:50;;;;;;;2.57;2.37;;;;;;;9.02;97.16;96620.84;5006148;28;20661;-86
2024/02/20 05:18:40;;;;;;;2.93;2.20;;;;;;;8.90;98.59;96647.63;4991276;28;20257;-85
2024/02/20 05:21:48;;;;;;;2.50;2.30;;;;;;;8.90;99.47;96653.56;5013736;28;20223;-85
2024/02/20 05:24:41;;;;;;;3.53;2.77;;;;;;;8.94;98.96;96651.53;4997567;28;20246;-86
2024/02/20 05:33:44;;;;;;;3.63;2.70;;;;;;;8.82;99.57;96666.31;4979402;28;20214;-85
2024/02/20 05:39:40;;;;;;;4.13;2.87;;;;;;;8.81;100.00;96669.84;4996821;28;20214;-85
2024/02/20 05:45:35;;;;;;;3.43;3.13;;;;;;;8.83;100.00;96687.69;4984540;28;20282;-85
2024/02/20 05:48:14;;;;;;;;;;;;;;;;;;;;;
2024/02/20 05:50:59;;;;;;;3.10;2.80;;;;;;;8.84;100.00;96725.25;5014309;28;20225;-85
2024/02/20 05:53:29;;;;;;;4.37;3.07;;;;;;;8.92;100.00;96717.66;5013584;28;20261;-85
2024/02/20 06:02:42;;;;;;;3.73;3.17;;;;;;;8.92;100.00;96725.34;5006464;28;20222;-85
2024/02/20 06:06:07;;;;;;;3.50;2.83;;;;;;;8.95;100.00;96719.94;4990352;28;20203;-86
2024/02/20 06:09:25;;;;;;;4.63;3.20;;;;;;;8.96;100.00;96716.44;4990792;28;20214;-85
2024/02/20 06:11:59;;;;;;;4.37;3.37;;;;;;;9.04;100.00;96701.16;4919677;29;20228;-86
2024/02/20 06:14:40;;;;;;;3.63;3.33;;;;;;;9.11;99.40;96696.25;4930389;29;20232;-85
2024/02/20 06:17:12;;;;;;;3.33;3.03;;;;;;;9.14;99.09;96694.22;4930557;29;20220;-87
2024/02/20 06:19:46;;;;;;;3.77;3.40;;;;;;;9.18;98.94;96702.44;4925771;29;20205;-86
2024/02/20 06:22:16;;;;;;;3.40;3.10;;;;;;;9.20;98.39;96695.41;4926818;29;20304;-86
2024/02/20 06:25:17;;;;;;;5.37;3.90;;;;;;;9.17;97.74;96681.09;4926796;29;20209;-85
2024/02/20 06:27:46;;;;;;;3.50;3.20;;;;;;;9.15;98.02;96688.13;4967197;28;20207;-85
2024/02/20 06:33:13;;;;;;;3.10;2.80;;;;;;;8.97;97.03;96682.91;5006078;28;20226;-85
2024/02/20 06:36:04;;;;;;;2.80;2.50;;;;;;;8.95;97.65;96697.63;5000869;28;20313;-86
2024/02/20 06:47:39;;;;;;;7.33;6.63;;;;;;;8.80;98.54;96729.84;5002087;28;20565;-86
2024/02/20 06:50:46;;;;;;;3.20;2.90;;;;;;;8.80;100.00;96765.78;4957926;28;20209;-85
2024/02/20 06:53:48;;;;;;;2.40;1.67;;;;;;;8.82;97.67;96732.28;4959798;28;20294;-86
2024/02/20 07:03:26;;;;;;;1.83;1.50;;;;;;;8.80;95.79;96716.19;4990562;28;20219;-86
2024/02/20 07:06:24;;;;;;;1.70;1.40;;;;;;;8.68;96.98;96728.34;4990167;28;20199;-85
2024/02/20 07:12:55;;;;;;;2.60;1.70;;;;;;;8.71;96.16;96727.28;4995830;28;20235;-86
2024/02/20 07:18:50;;;;;;;3.40;1.70;;;;;;;8.74;92.80;96681.59;5008017;28;20249;-85
2024/02/20 07:21:19;;;;;;;2.27;2.07;;;;;;;8.73;92.65;96690.25;5010823;28;20225;-85
2024/02/20 07:23:46;;;;;;;5.07;4.57;;;;;;;8.69;93.13;96696.59;5001193;28;20238;-86
2024/02/20 07:26:28;;;;;;;5.87;5.03;;;;;;;8.76;92.93;96696.88;5005714;28;20196;-86
2024/02/20 07:35:22;;;;;;;;;;;;;;;;;;;;;
2024/02/20 07:37:55;;;;;;;3.30;2.27;;;;;;;8.78;93.53;96718.91;4967132;28;20211;-86
2024/02/20 07:40:30;;;;;;;3.47;2.63;;;;;;;8.81;93.24;96717.81;4995501;28;20656;-85
2024/02/20 07:46:59;;;;;;;3.30;2.60;;;;;;;8.83;93.83;96741.59;4996600;28;20604;-86
2024/02/20 07:50:05;;;;;;;4.50;2.77;;;;;;;8.83;93.55;96737.28;4955365;28;20686;-86
2024/02/20 07:56:34;;;;;;;2.40;2.20;;;;;;;8.93;92.54;96735.50;5001496;28;20230;-85
2024/02/20 08:27:17;;;;;;;6.23;2.90;;;;;;;8.78;87.76;96669.28;4985059;28;20207;-86
2024/02/20 08:30:07;;;;;;;7.60;3.10;;;;;;;8.71;87.47;96666.47;5005452;28;20699;-85
2024/02/20 08:38:57;;;;;;;5.63;2.87;;;;;;;8.98;88.81;96712.78;4943771;28;20197;-85
2024/02/20 08:47:54;;;;;;;27.47;22.43;;;;;;;9.11;86.47;96657.69;4992221;28;20207;-85
2024/02/20 08:51:00;;;;;;;5.77;2.63;;;;;;;8.98;83.23;96579.22;4991987;28;20298;-86
2024/02/20 08:54:34;;;;;;;4.67;2.33;;;;;;;9.06;82.52;96570.78;4989094;28;20241;-86
2024/02/20 08:57:43;;;;;;;4.90;2.23;;;;;;;9.06;83.22;96590.50;4977641;28;20228;-85
2024/02/20 09:03:41;;;;;;;6.33;2.83;;;;;;;8.98;80.71;96535.53;5051703;23;20308;-86
2024/02/20 09:06:36;;;;;;;;;;;;;;;;;;;;;
2024/02/20 09:09:39;;;;;;;;;;;;;;;;;;;;;
2024/02/20 09:12:28;;;;;;;6.63;3.00;;;;;;;9.18;79.81;96527.72;5000313;28;20215;-85
2024/02/20 09:18:31;;;;;;;5.70;3.00;;;;;;;9.72;74.93;96413.66;4941523;28;20309;-86
2024/02/20 09:21:17;;;;;;;4.97;2.50;;;;;;;10.51;73.92;96392.06;4988804;28;20665;-85
2024/02/20 09:24:04;;;;;;;11.60;7.47;;;;;;;10.41;72.78;96352.75;4992610;28;20199;-85
2024/02/20 09:26:53;;;;;;;6.67;4.27;;;;;;;10.21;71.98;96306.66;4987979;28;20230;-86
2024/02/20 09:32:50;;;;;;;5.37;2.57;;;;;;;9.81;72.44;96319.38;4996505;28;20238;-84
2024/02/20 09:35:40;;;;;;;6.47;3.00;;;;;;;9.76;72.19;96321.59;4972935;28;20226;-85
2024/02/20 09:38:27;;;;;;;6.90;3.00;;;;;;;10.03;72.38;96337.63;4971669;28;20239;-86
2024/02/20 09:41:24;;;;;;;9.27;3.27;;;;;;;10.12;70.68;96279.28;4973148;28;20266;-85
2024/02/20 09:44:19;;;;;;;7.10;3.10;;;;;;;10.09;70.52;96278.78;4972959;28;20208;-85
2024/02/20 09:47:11;;;;;;;5.43;2.60;;;;;;;9.97;69.99;96248.22;4972279;28;20215;-85
2024/02/20 09:52:39;;;;;;;5.77;2.80;;;;;;;10.21;69.09;96232.03;4991307;28;20237;-86
2024/02/20 09:55:37;;;;;;;5.80;2.97;;;;;;;10.14;69.25;96230.25;5014027;28;20615;-85
2024/02/20 09:58:24;;;;;;;4.33;2.40;;;;;;;9.66;67.58;96147.66;5004914;28;20835;-86
2024/02/20 10:01:21;;;;;;;4.73;2.43;;;;;;;9.43;69.92;96251.19;4991141;28;20204;-86
2024/02/20 10:04:32;;;;;;;6.00;4.27;;;;;;;9.24;72.60;96366.06;4990597;28;20239;-86
2024/02/20 10:07:20;;;;;;;7.70;2.83;;;;;;;9.11;75.57;96473.53;5010146;28;20688;-85
2024/02/20 10:17:15;;;;;;;5.60;2.80;;;;;;;10.24;77.61;96566.31;4914823;28;20234;-85
2024/02/20 10:20:19;;;;;;;;;;;;;;;;;;;;;
2024/02/20 10:26:28;;;;;;;6.50;3.07;;;;;;;11.93;68.63;96254.09;4995853;28;20734;-85
2024/02/20 10:29:28;;;;;;;5.47;2.90;;;;;;;11.59;67.20;96180.34;5012471;28;20206;-85
2024/02/20 10:32:14;;;;;;;5.73;2.83;;;;;;;11.50;65.85;96098.06;5006392;28;20309;-85
2024/02/20 10:35:17;;;;;;;7.10;2.80;;;;;;;11.30;64.99;96064.16;5004491;28;20208;-85
2024/02/20 10:38:22;;;;;;;7.17;2.80;;;;;;;11.24;65.04;96059.66;5005847;28;20230;-85
2024/02/20 10:41:03;;;;;;;4.57;2.50;;;;;;;11.38;66.04;96119.03;4970647;28;20242;-85
2024/02/20 10:43:39;;;;;;;6.10;2.80;;;;;;;11.24;64.64;96055.31;4973746;28;20202;-85
2024/02/20 10:56:01;;;;;;;9.00;2.77;;;;;;;11.00;66.32;96138.66;4917839;29;20263;-87
2024/02/20 11:09:11;;;;;;;6.47;2.73;;;;;;;10.37;64.30;96031.31;5006985;28;20221;-88
2024/02/20 11:11:52;;;;;;;12.87;7.17;;;;;;;10.25;64.87;96030.03;4878427;29;20231;-86
2024/02/20 11:15:15;;;;;;;7.40;3.10;;;;;;;10.14;62.88;95939.50;4855379;29;20204;-84
2024/02/20 11:17:58;;;;;;;6.53;2.70;;;;;;;10.05;62.83;95920.69;4898972;28;20303;-85
2024/02/20 11:20:29;;;;;;;4.87;2.10;;;;;;;10.01;62.29;95889.34;4976391;28;20286;-83
2024/02/20 11:22:57;;;;;;;6.60;2.53;;;;;;;10.01;62.18;95880.81;4976300;28;20289;-84
2024/02/20 11:25:42;;;;;;;7.33;2.40;;;;;;;10.03;61.79;95879.69;4987842;28;20267;-83
2024/02/20 11:28:36;;;;;;;4.53;2.33;;;;;;;10.14;62.32;95918.91;5008787;28;20215;-86
2024/02/20 11:31:10;;;;;;;5.47;2.53;;;;;;;10.23;62.23;95897.34;5013746;28;20623;-84
2024/02/20 11:33:47;;;;;;;4.43;2.13;;;;;;;10.23;61.71;95866.47;5013352;28;20766;-85
2024/02/20 11:36:36;;;;;;;4.07;2.60;;;;;;;10.26;61.62;95889.28;5013566;28;20219;-85
2024/02/20 11:39:29;;;;;;;6.43;2.60;;;;;;;10.41;59.83;95753.78;5014849;28;20269;-84
2024/02/20 11:42:10;;;;;;;5.27;2.37;;;;;;;10.80;59.33;95748.50;5012353;28;20222;-84
2024/02/20 11:44:53;;;;;;;11.50;6.60;;;;;;;11.24;58.48;95709.13;5016638;28;20207;-84
2024/02/20 11:47:36;;;;;;;5.13;2.03;;;;;;;11.63;55.17;95520.59;5012442;28;20286;-84
2024/02/20 11:53:31;;;;;;;5.53;2.70;;;;;;;11.64;54.80;95419.84;5012268;28;20237;-86
2024/02/20 11:59:39;;;;;;;5.60;1.87;;;;;;;11.12;53.00;95363.50;4939847;28;20325;-85
2024/02/20 12:02:09;;;;;;;2.97;1.80;;;;;;;10.83;54.07;95418.47;4998014;28;20262;-85
2024/02/20 12:04:45;;;;;;;6.07;1.90;;;;;;;10.73;55.15;95496.03;4994719;28;20668;-84
2024/02/20 12:07:26;;;;;;;4.67;1.87;;;;;;;10.61;56.61;95604.78;4994071;28;21040;-85
2024/02/20 12:12:58;;;;;;;3.93;2.00;;;;;;;10.52;58.06;95714.78;4976789;28;20306;-85
2024/02/20 12:18:48;;;;;;;3.73;2.00;;;;;;;10.24;63.28;96030.19;4964937;28;20203;-85
2024/02/20 12:24:11;;;;;;;3.53;1.83;;;;;;;10.66;64.99;96140.66;4963681;28;20242;-84
2024/02/20 12:26:58;;;;;;;3.50;1.87;;;;;;;10.72;62.38;96013.84;4992111;28;20212;-86
2024/02/20 12:29:47;;;;;;;5.80;2.00;;;;;;;10.72;61.72;95960.56;4998037;28;20206;-83
2024/02/20 12:32:53;;;;;;;4.67;1.87;;;;;;;10.75;61.17;95948.31;5011196;28;20261;-85
2024/02/20 12:35:34;;;;;;;3.67;1.90;;;;;;;11.05;60.52;95927.69;5017805;28;20209;-84
2024/02/20 12:38:01;;;;;;;4.03;2.20;;;;;;;10.84;59.87;95849.41;5014445;28;20257;-85
2024/02/20 12:40:35;;;;;;;3.27;2.00;;;;;;;10.80;59.35;95820.59;5013106;28;20215;-85
2024/02/20 12:43:10;;;;;;;4.10;1.60;;;;;;;10.53;58.97;95795.38;5012037;28;20617;-85
2024/02/20 12:45:48;;;;;;;2.93;1.60;;;;;;;10.34;59.44;95794.84;5004310;28;20252;-84
2024/02/20 12:48:29;;;;;;;2.00;1.40;;;;;;;10.22;59.35;95801.34;4999069;28;20576;-84
2024/02/20 12:51:09;;;;;;;3.63;1.63;;;;;;;10.20;58.21;95725.31;4992983;28;20203;-85
2024/02/20 12:53:42;;;;;;;2.33;1.50;;;;;;;10.25;57.65;95686.97;4992174;28;20207;-85
2024/02/20 12:56:12;;;;;;;10.90;7.37;;;;;;;10.35;56.74;95633.50;4993237;28;20214;-84
2024/02/20 12:58:40;;;;;;;4.13;2.17;;;;;;;10.43;55.92;95587.09;4992554;28;20286;-85
2024/02/20 13:01:17;;;;;;;3.43;1.70;;;;;;;10.66;55.81;95580.13;4994291;28;20228;-85
2024/02/20 13:06:31;;;;;;;4.97;1.80;;;;;;;10.68;56.07;95605.69;4936294;28;20240;-85
2024/02/20 13:09:23;;;;;;;5.70;1.83;;;;;;;10.65;55.49;95570.78;4972795;28;20295;-85
2024/02/20 13:15:08;;;;;;;5.33;1.50;;;;;;;10.64;55.76;95614.75;4986175;28;20199;-85
2024/02/20 13:17:41;;;;;;;2.80;1.80;;;;;;;10.84;55.92;95625.31;4999236;28;20274;-85
2024/02/20 13:20:27;;;;;;;3.87;2.23;;;;;;;10.91;54.73;95541.22;5014803;28;20678;-84
2024/02/20 13:23:13;;;;;;;9.17;1.73;;;;;;;10.94;54.07;95497.06;5013052;28;20227;-86
2024/02/20 13:25:48;;;;;;;2.83;1.80;;;;;;;10.90;54.27;95488.09;5013998;28;20198;-84
2024/02/20 13:28:16;;;;;;;1.43;1.33;;;;;;;10.93;53.88;95496.28;5018102;28;20611;-84
2024/02/20 13:30:43;;;;;;;4.47;2.40;;;;;;;10.94;54.08;95472.13;5017774;28;20233;-86
2024/02/20 13:33:10;;;;;;;4.40;2.07;;;;;;;10.91;54.63;95505.16;5014121;28;20242;-84
2024/02/20 13:35:55;;;;;;;6.03;2.13;;;;;;;10.86;54.16;95540.94;5014776;28;20211;-88
2024/02/20 13:38:25;;;;;;;5.03;2.20;;;;;;;10.75;54.87;95575.69;5017418;28;20230;-88
2024/02/20 13:40:57;;;;;;;4.77;1.90;;;;;;;10.58;54.12;95549.28;5017083;28;20215;-86
2024/02/20 13:43:29;;;;;;;4.03;2.00;;;;;;;10.54;54.82;95570.44;5006400;28;20237;-87
2024/02/20 13:45:56;;;;;;;4.87;2.10;;;;;;;10.51;55.00;95596.53;4997299;28;20230;-87
2024/02/20 13:48:26;;;;;;;6.77;3.20;;;;;;;10.48;55.20;95613.13;4988504;28;20272;-88
2024/02/20 13:50:53;;;;;;;8.07;3.47;;;;;;;10.52;55.91;95644.47;5001719;28;20272;-88
2024/02/20 13:53:20;;;;;;;4.67;2.20;;;;;;;10.58;56.15;95667.72;5017967;28;20248;-85
2024/02/20 13:55:49;;;;;;;3.43;2.10;;;;;;;10.53;55.77;95635.78;5016948;28;20209;-87
2024/02/20 13:58:16;;;;;;;4.83;2.03;;;;;;;10.70;55.79;95650.09;5013481;28;20215;-87
2024/02/20 14:00:44;;;;;;;4.30;2.53;;;;;;;11.02;55.11;95623.19;4996780;28;20206;-85
2024/02/20 14:03:11;;;;;;;4.93;2.13;;;;;;;11.46;55.14;95638.63;4997614;28;20647;-85
2024/02/20 14:05:39;;;;;;;8.20;2.43;;;;;;;11.56;54.16;95597.06;4998100;28;20263;-84
2024/02/20 14:08:08;;;;;;;4.10;2.00;;;;;;;11.62;54.36;95578.31;5018228;28;20234;-83
2024/02/20 14:10:37;;;;;;;4.80;2.23;;;;;;;11.68;54.24;95575.00;5016429;28;20240;-85
2024/02/20 14:13:05;;;;;;;7.13;2.67;;;;;;;11.59;54.00;95564.00;4999545;28;20220;-85
2024/02/20 14:15:31;;;;;;;4.63;2.00;;;;;;;11.67;54.33;95576.78;4996943;28;20302;-84
2024/02/20 14:18:00;;;;;;;5.13;1.90;;;;;;;11.52;54.33;95568.31;4995307;28;20314;-87
2024/02/20 14:20:27;;;;;;;6.30;2.40;;;;;;;11.45;54.71;95590.63;4997272;28;20237;-85
2024/02/20 14:22:55;;;;;;;6.37;2.23;;;;;;;11.17;55.16;95613.66;5004543;28;20223;-85
2024/02/20 14:25:22;;;;;;;3.63;2.07;;;;;;;11.13;55.64;95650.31;5007245;28;20210;-84
2024/02/20 14:27:48;;;;;;;5.07;2.30;;;;;;;10.95;55.93;95655.81;4992404;28;20196;-86
2024/02/20 14:30:15;;;;;;;4.83;2.00;;;;;;;10.79;55.88;95637.91;4991871;28;20645;-88
2024/02/20 14:32:41;;;;;;;6.33;2.10;;;;;;;10.79;55.99;95667.06;4994423;28;20310;-85
2024/02/20 14:35:10;;;;;;;11.43;7.13;;;;;;;11.00;55.61;95658.63;4994689;28;20294;-84
2024/02/20 14:37:37;;;;;;;5.10;2.07;;;;;;;11.28;54.47;95592.63;4991825;28;20259;-84
2024/02/20 14:40:07;;;;;;;3.47;1.83;;;;;;;11.61;53.73;95559.44;5006370;28;20260;-85
2024/02/20 14:42:36;;;;;;;6.20;2.10;;;;;;;11.86;53.70;95556.53;5010879;28;20223;-85
2024/02/20 14:45:04;;;;;;;4.77;2.10;;;;;;;11.66;52.52;95466.06;5010566;28;20206;-84
2024/02/20 14:47:30;;;;;;;5.80;2.30;;;;;;;11.49;52.75;95478.41;5011754;28;20218;-85
2024/02/20 14:49:56;;;;;;;5.77;2.30;;;;;;;11.21;52.47;95449.19;4990701;28;20212;-85
2024/02/20 14:52:23;;;;;;;4.13;2.00;;;;;;;11.01;52.94;95448.97;4990322;28;20223;-84
2024/02/20 14:54:51;;;;;;;4.40;1.77;;;;;;;10.90;53.52;95488.09;4992501;28;20217;-85
2024/02/20 14:57:22;;;;;;;5.77;1.67;;;;;;;10.80;53.44;95493.53;4989561;28;20301;-85
2024/02/20 14:59:51;;;;;;;5.40;2.00;;;;;;;10.82;53.89;95516.53;4990634;28;20229;-85
2024/02/20 15:02:18;;;;;;;4.33;2.00;;;;;;;10.71;53.53;95505.72;4990572;28;20235;-84
2024/02/20 15:04:45;;;;;;;4.93;1.90;;;;;;;10.64;53.53;95497.09;4990264;28;20254;-85
2024/02/20 15:07:14;;;;;;;5.50;1.97;;;;;;;10.70;53.70;95508.47;4990537;28;20212;-86
2024/02/20 15:09:41;;;;;;;6.47;1.97;;;;;;;10.73;53.23;95488.31;4990840;28;20263;-85
2024/02/20 15:12:18;;;;;;;6.70;3.13;;;;;;;10.77;53.80;95521.44;5000949;28;20598;-84
2024/02/20 15:14:48;;;;;;;6.37;3.10;;;;;;;10.81;53.44;95514.94;5010635;28;20237;-85
2024/02/20 15:17:18;;;;;;;4.77;2.30;;;;;;;11.01;53.42;95527.06;5010885;28;20226;-85
2024/02/20 15:19:48;;;;;;;3.03;1.70;;;;;;;11.19;52.24;95474.34;5010632;28;20210;-84
2024/02/20 15:22:15;;;;;;;5.60;1.97;;;;;;;11.33;51.77;95438.22;5010930;28;20321;-84
2024/02/20 15:24:41;;;;;;;6.03;2.37;;;;;;;11.32;52.23;95435.81;5010426;28;20198;-85
2024/02/20 15:27:07;;;;;;;6.10;2.20;;;;;;;11.14;52.14;95422.56;5005417;28;20198;-84
2024/02/20 15:29:38;;;;;;;5.47;1.73;;;;;;;11.07;52.22;95437.97;5008071;28;20206;-84
2024/02/20 15:32:07;;;;;;;4.83;2.17;;;;;;;10.90;52.44;95445.13;5010107;28;20288;-84
2024/02/20 15:34:34;;;;;;;4.47;1.83;;;;;;;10.85;52.56;95462.88;5009451;28;20203;-88
2024/02/20 15:37:03;;;;;;;4.53;1.80;;;;;;;10.83;53.09;95498.31;5010192;28;20627;-87
2024/02/20 15:39:30;;;;;;;5.47;1.90;;;;;;;10.75;53.25;95515.66;5010419;28;20214;-86
2024/02/20 15:41:56;;;;;;;5.00;2.17;;;;;;;10.70;53.65;95535.00;5009938;28;20231;-87
2024/02/20 15:44:23;;;;;;;3.83;1.97;;;;;;;10.67;54.22;95570.63;5007106;28;20202;-87
2024/02/20 15:46:49;;;;;;;5.03;1.90;;;;;;;10.60;54.45;95591.13;5010682;28;20301;-86
2024/02/20 15:49:20;;;;;;;16.70;11.30;;;;;;;10.59;54.21;95599.00;4996435;28;20206;-86
2024/02/20 15:51:47;;;;;;;7.70;4.87;;;;;;;10.58;54.78;95618.03;4990766;28;20223;-87
2024/02/20 15:54:16;;;;;;;4.50;2.03;;;;;;;10.53;54.33;95597.16;4990404;28;20203;-87
2024/02/20 15:56:44;;;;;;;6.07;2.30;;;;;;;10.48;54.63;95595.09;4990342;28;20203;-86
2024/02/20 15:59:10;;;;;;;4.37;2.10;;;;;;;10.49;54.99;95609.56;4995277;28;20726;-87
2024/02/20 16:01:37;;;;;;;6.67;2.20;;;;;;;10.48;54.72;95602.81;5009786;28;20247;-85
2024/02/20 16:04:04;;;;;;;8.13;2.00;;;;;;;10.50;54.68;95595.72;5009895;28;20207;-86
2024/02/20 16:06:34;;;;;;;6.27;2.13;;;;;;;10.51;54.75;95610.19;5010657;28;20234;-86
2024/02/20 16:09:00;;;;;;;6.20;1.77;;;;;;;10.53;55.01;95612.59;5011031;28;20199;-85